Time;durP1;ratioP1;P1;durP2;ratioP2;P2;SDS_P1;SDS_P2;PMS_P1;PMS_P2;Temp;Humidity;BMP_temperature;BMP_pressure;BME280_temperature;BME280_humidity;BME280_pressure;Samples;Min_cycle;Max_cycle;Signal;HPM_P1;HPM_P2
2023/08/03 00:01:31;;;;;;;23.67;10.23;;;15.00;99.90;;;;;;5025470;28;20102;-70
2023/08/03 00:04:00;;;;;;;31.80;9.50;;;15.10;99.90;;;;;;5007281;28;20030;-71
2023/08/03 00:06:27;;;;;;;23.60;9.20;;;15.10;99.90;;;;;;5005863;28;20022;-69
2023/08/03 00:08:53;;;;;;;25.90;8.95;;;15.10;99.90;;;;;;5006858;28;20030;-70
2023/08/03 00:11:19;;;;;;;17.17;8.77;;;15.10;99.90;;;;;;5007140;28;20041;-70
2023/08/03 00:13:44;;;;;;;17.30;7.80;;;15.10;99.90;;;;;;5006418;28;20038;-72
2023/08/03 00:16:13;;;;;;;22.38;7.88;;;15.10;99.90;;;;;;5005574;28;20109;-71
2023/08/03 00:18:38;;;;;;;16.48;6.93;;;15.10;99.90;;;;;;5015569;28;20029;-69
2023/08/03 00:21:04;;;;;;;14.00;6.35;;;15.20;99.90;;;;;;5022049;28;20392;-69
2023/08/03 00:23:29;;;;;;;24.73;7.05;;;15.10;99.90;;;;;;5005317;28;20053;-70
2023/08/03 00:25:55;;;;;;;22.25;7.45;;;15.10;99.90;;;;;;5005917;28;20069;-70
2023/08/03 00:28:22;;;;;;;21.00;6.95;;;15.10;99.90;;;;;;5006799;28;20471;-70
2023/08/03 00:30:47;;;;;;;17.17;7.05;;;15.10;99.90;;;;;;5006745;28;20026;-70
2023/08/03 00:33:13;;;;;;;17.73;7.20;;;15.10;99.90;;;;;;5006565;28;20046;-71
2023/08/03 00:35:38;;;;;;;18.48;7.53;;;15.10;99.90;;;;;;5006466;28;20041;-70
2023/08/03 00:38:04;;;;;;;19.23;7.35;;;15.10;99.90;;;;;;5006562;28;20030;-69
2023/08/03 00:40:30;;;;;;;25.80;7.50;;;15.10;99.90;;;;;;5004618;28;20463;-69
2023/08/03 00:42:55;;;;;;;18.77;8.38;;;15.10;99.90;;;;;;5006378;28;20029;-70
2023/08/03 00:45:21;;;;;;;24.80;8.63;;;15.10;99.90;;;;;;5006123;28;20061;-71
2023/08/03 00:47:47;;;;;;;26.85;8.65;;;15.10;99.90;;;;;;5006105;28;20072;-70
2023/08/03 00:50:12;;;;;;;23.55;8.60;;;15.10;99.90;;;;;;5006483;28;20050;-71
2023/08/03 00:52:38;;;;;;;33.90;9.30;;;15.10;99.90;;;;;;5005960;28;20062;-69
2023/08/03 00:55:04;;;;;;;27.10;8.98;;;15.10;99.90;;;;;;5005492;28;20045;-70
2023/08/03 00:57:30;;;;;;;23.63;8.18;;;15.10;99.90;;;;;;5005983;28;20081;-69
2023/08/03 00:59:56;;;;;;;19.02;7.97;;;15.10;99.90;;;;;;5004573;28;20031;-69
2023/08/03 01:02:22;;;;;;;22.13;8.20;;;15.10;99.90;;;;;;5005747;28;20027;-70
2023/08/03 01:04:48;;;;;;;23.33;7.70;;;15.10;99.90;;;;;;5005940;28;20039;-70
2023/08/03 01:07:14;;;;;;;21.05;7.15;;;15.20;99.90;;;;;;5005942;28;20026;-69
2023/08/03 01:09:40;;;;;;;20.83;7.25;;;15.10;99.90;;;;;;5005996;28;20077;-69
2023/08/03 01:12:06;;;;;;;20.92;7.65;;;15.10;99.90;;;;;;5005890;28;20104;-69
2023/08/03 01:14:31;;;;;;;24.45;7.78;;;15.10;99.90;;;;;;5005423;28;20030;-69
2023/08/03 01:16:57;;;;;;;24.00;7.72;;;15.10;99.90;;;;;;5004197;28;20046;-69
2023/08/03 01:19:22;;;;;;;22.55;7.45;;;15.10;99.90;;;;;;5004286;28;20098;-70
2023/08/03 01:21:50;;;;;;;20.67;7.57;;;15.10;99.90;;;;;;5003915;28;20033;-70
2023/08/03 01:24:16;;;;;;;25.33;7.35;;;15.00;99.90;;;;;;5005542;28;20037;-69
2023/08/03 01:26:42;;;;;;;21.13;7.35;;;15.00;99.90;;;;;;5005720;28;20117;-69
2023/08/03 01:29:08;;;;;;;23.13;6.97;;;15.10;99.90;;;;;;5005260;28;20035;-69
2023/08/03 01:31:34;;;;;;;18.77;6.55;;;15.00;99.90;;;;;;5004120;28;20049;-69
2023/08/03 01:34:00;;;;;;;24.58;6.78;;;15.00;99.90;;;;;;5005484;28;20022;-68
2023/08/03 01:36:26;;;;;;;13.48;6.60;;;15.00;99.90;;;;;;5005181;28;20034;-69
2023/08/03 01:39:09;;;;;;;18.38;5.80;;;15.00;99.90;;;;;;5005340;28;20097;-71
2023/08/03 01:41:36;;;;;;;21.17;6.25;;;15.00;99.90;;;;;;5005427;28;20417;-69
2023/08/03 01:44:25;;;;;;;19.88;6.22;;;15.00;99.90;;;;;;5005087;28;20423;-69
2023/08/03 01:46:51;;;;;;;17.88;6.00;;;15.00;99.90;;;;;;5005346;28;20018;-70
2023/08/03 01:49:17;;;;;;;22.67;5.88;;;15.00;99.90;;;;;;5003929;28;20030;-70
2023/08/03 01:51:43;;;;;;;20.05;6.05;;;15.00;99.90;;;;;;5013828;28;20050;-69
2023/08/03 01:54:10;;;;;;;16.42;5.82;;;15.00;99.90;;;;;;5024988;28;20026;-68
2023/08/03 01:56:36;;;;;;;20.33;6.10;;;15.00;99.90;;;;;;5024650;28;20067;-69
2023/08/03 01:59:01;;;;;;;21.70;6.88;;;15.10;99.90;;;;;;5024245;28;20085;-69
2023/08/03 02:01:27;;;;;;;17.75;6.05;;;15.10;99.90;;;;;;5024557;28;20050;-69
2023/08/03 02:03:52;;;;;;;19.20;5.97;;;15.10;99.90;;;;;;5023801;28;20026;-69
2023/08/03 02:06:18;;;;;;;18.77;6.35;;;15.10;99.90;;;;;;5018141;28;20099;-70
2023/08/03 02:08:44;;;;;;;14.20;5.82;;;15.10;99.90;;;;;;5010418;28;20050;-69
2023/08/03 02:11:09;;;;;;;16.92;6.57;;;15.10;99.90;;;;;;5004816;28;20061;-69
2023/08/03 02:13:35;;;;;;;15.52;6.15;;;15.10;99.90;;;;;;5014156;28;20026;-69
2023/08/03 02:16:08;;;;;;;17.73;6.13;;;15.10;99.90;;;;;;5024389;28;20038;-69
2023/08/03 02:18:34;;;;;;;20.65;6.75;;;15.20;99.90;;;;;;5024272;28;20584;-70
2023/08/03 02:21:00;;;;;;;30.27;6.53;;;15.10;99.90;;;;;;5024007;28;20102;-69
2023/08/03 02:23:25;;;;;;;18.88;6.53;;;15.10;99.90;;;;;;5024116;28;20030;-70
2023/08/03 02:25:51;;;;;;;16.05;5.82;;;15.20;99.90;;;;;;5024192;28;20022;-72
2023/08/03 02:28:17;;;;;;;23.63;6.07;;;15.20;99.90;;;;;;5024114;28;20386;-71
2023/08/03 02:30:43;;;;;;;16.00;6.38;;;15.20;99.90;;;;;;5024812;28;20030;-71
2023/08/03 02:33:08;;;;;;;22.90;5.80;;;15.20;99.90;;;;;;5024291;28;20037;-69
2023/08/03 02:35:37;;;;;;;16.38;5.88;;;15.20;99.90;;;;;;5024363;28;20034;-69
2023/08/03 02:38:03;;;;;;;17.75;6.35;;;15.20;99.90;;;;;;5024467;28;20022;-69
2023/08/03 02:40:29;;;;;;;18.20;5.50;;;15.20;99.90;;;;;;5027995;28;20026;-69
2023/08/03 02:42:54;;;;;;;16.77;6.10;;;15.20;99.90;;;;;;5028052;28;20030;-69
2023/08/03 02:45:20;;;;;;;13.68;5.55;;;15.20;99.90;;;;;;5028495;28;20026;-70
2023/08/03 02:47:46;;;;;;;17.95;5.70;;;15.20;99.90;;;;;;5027640;28;20022;-70
2023/08/03 02:50:12;;;;;;;16.02;5.82;;;15.30;99.90;;;;;;5028331;28;20034;-70
2023/08/03 02:52:37;;;;;;;14.43;5.18;;;15.30;99.90;;;;;;5027685;28;20499;-71
2023/08/03 02:55:03;;;;;;;18.00;6.03;;;15.30;99.90;;;;;;5027917;28;20034;-70
2023/08/03 02:57:29;;;;;;;15.93;6.03;;;15.30;99.90;;;;;;5027887;28;20526;-70
2023/08/03 02:59:54;;;;;;;16.80;6.28;;;15.30;99.90;;;;;;5027796;28;20046;-70
2023/08/03 03:02:20;;;;;;;20.20;5.68;;;15.30;99.90;;;;;;5027342;28;20030;-70
2023/08/03 03:04:46;;;;;;;17.85;6.65;;;15.30;99.90;;;;;;5028006;28;20033;-72
2023/08/03 03:07:11;;;;;;;15.43;6.40;;;15.20;99.90;;;;;;5027863;28;20048;-70
2023/08/03 03:09:37;;;;;;;18.83;6.55;;;15.20;99.90;;;;;;5027510;28;20026;-70
2023/08/03 03:12:03;;;;;;;26.40;7.00;;;15.20;99.90;;;;;;5027299;28;20497;-68
2023/08/03 03:14:29;;;;;;;15.27;6.43;;;15.20;99.90;;;;;;5027702;28;20037;-69
2023/08/03 03:16:54;;;;;;;25.27;7.22;;;15.20;99.90;;;;;;5027500;28;20030;-69
2023/08/03 03:19:20;;;;;;;21.02;7.20;;;15.30;99.90;;;;;;5027654;28;20049;-69
2023/08/03 03:21:45;;;;;;;26.77;7.88;;;15.30;99.90;;;;;;5027726;28;20030;-72
2023/08/03 03:24:11;;;;;;;23.48;7.53;;;15.30;99.90;;;;;;5027355;28;20042;-69
2023/08/03 03:26:36;;;;;;;18.70;6.95;;;15.30;99.90;;;;;;5027554;28;20029;-70
2023/08/03 03:29:02;;;;;;;27.65;7.30;;;15.30;99.90;;;;;;5025943;28;20049;-71
2023/08/03 03:31:28;;;;;;;22.08;7.05;;;15.30;99.90;;;;;;5025266;28;20049;-69
2023/08/03 03:33:53;;;;;;;23.83;6.85;;;15.30;99.90;;;;;;5008747;28;20034;-69
2023/08/03 03:36:19;;;;;;;0.10;0.10;;;15.30;99.90;;;;;;5022050;28;20038;-70
2023/08/03 03:38:44;;;;;;;0.00;0.00;;;15.30;99.90;;;;;;5018142;28;20038;-70
2023/08/03 03:41:10;;;;;;;0.00;0.00;;;15.30;99.90;;;;;;5008022;28;20056;-69
2023/08/03 03:43:36;;;;;;;0.00;0.00;;;15.30;99.90;;;;;;5007554;28;20030;-69
2023/08/03 03:46:02;;;;;;;0.00;0.00;;;15.20;99.90;;;;;;5007174;28;20078;-71
2023/08/03 03:48:28;;;;;;;0.00;0.00;;;15.20;99.90;;;;;;5007489;28;20026;-69
2023/08/03 03:50:53;;;;;;;0.00;0.00;;;15.20;99.90;;;;;;5006702;28;20535;-70
2023/08/03 03:53:19;;;;;;;0.00;0.00;;;15.20;99.90;;;;;;5007358;28;20054;-70
2023/08/03 03:55:45;;;;;;;0.20;0.20;;;15.20;99.90;;;;;;5007200;28;20053;-69
2023/08/03 03:58:11;;;;;;;0.00;0.00;;;15.20;99.90;;;;;;5007103;28;20363;-69
2023/08/03 04:00:40;;;;;;;0.00;0.00;;;15.20;99.90;;;;;;5007236;28;20048;-69
2023/08/03 04:03:09;;;;;;;0.00;0.00;;;15.20;99.90;;;;;;5005951;28;20029;-71
2023/08/03 04:05:36;;;;;;;0.00;0.00;;;15.20;99.90;;;;;;5005442;28;20443;-70
2023/08/03 04:08:03;;;;;;;0.00;0.00;;;15.20;99.90;;;;;;5007135;28;20026;-70
2023/08/03 04:10:29;;;;;;;0.00;0.00;;;15.20;99.90;;;;;;5014135;28;20030;-70
2023/08/03 04:12:55;;;;;;;0.00;0.00;;;15.20;99.90;;;;;;5026268;28;20038;-69
2023/08/03 04:15:20;;;;;;;0.00;0.00;;;15.20;99.90;;;;;;5026954;28;20052;-70
2023/08/03 04:17:48;;;;;;;0.00;0.00;;;15.20;99.90;;;;;;5010203;28;20029;-69
2023/08/03 04:20:17;;;;;;;0.00;0.00;;;15.20;99.90;;;;;;5006825;28;20034;-71
2023/08/03 04:22:43;;;;;;;0.00;0.00;;;15.30;99.90;;;;;;5007109;28;20030;-68
2023/08/03 04:25:09;;;;;;;0.00;0.00;;;15.30;99.90;;;;;;5006927;28;20022;-68
2023/08/03 04:27:36;;;;;;;0.00;0.00;;;15.30;99.90;;;;;;5012161;28;20048;-70
2023/08/03 04:30:02;;;;;;;0.00;0.00;;;15.30;99.90;;;;;;5016367;28;20030;-71
2023/08/03 04:32:27;;;;;;;0.00;0.00;;;15.30;99.90;;;;;;5019242;28;20046;-71
2023/08/03 04:34:53;;;;;;;0.13;0.10;;;15.30;99.90;;;;;;5025659;28;20018;-70
2023/08/03 04:37:18;;;;;;;0.00;0.00;;;15.30;99.90;;;;;;5025791;28;20026;-71
2023/08/03 04:39:44;;;;;;;0.00;0.00;;;15.30;99.90;;;;;;5026171;28;20036;-70
2023/08/03 04:42:10;;;;;;;0.00;0.00;;;15.30;99.90;;;;;;5026181;28;20081;-70
2023/08/03 04:44:35;;;;;;;0.00;0.00;;;15.30;99.90;;;;;;5025791;28;20030;-69
2023/08/03 04:47:01;;;;;;;0.00;0.00;;;15.30;99.90;;;;;;5024845;28;20030;-70
2023/08/03 04:49:26;;;;;;;0.00;0.00;;;15.30;99.90;;;;;;5008372;28;20365;-69
2023/08/03 04:51:52;;;;;;;0.00;0.00;;;15.30;99.90;;;;;;5012846;28;20054;-70
2023/08/03 04:54:18;;;;;;;0.00;0.00;;;15.30;99.90;;;;;;5020463;28;20065;-69
2023/08/03 04:56:44;;;;;;;0.00;0.00;;;15.30;99.90;;;;;;5013399;28;20173;-69
2023/08/03 04:59:10;;;;;;;0.00;0.00;;;15.40;99.90;;;;;;5025290;28;20468;-68
2023/08/03 05:01:35;;;;;;;0.00;0.00;;;15.40;99.90;;;;;;5024487;28;20038;-69
2023/08/03 05:04:01;;;;;;;0.00;0.00;;;15.40;99.90;;;;;;5025679;28;20029;-67
2023/08/03 05:06:27;;;;;;;0.00;0.00;;;15.40;99.90;;;;;;5025568;28;20022;-68
2023/08/03 05:08:53;;;;;;;0.00;0.00;;;15.40;99.90;;;;;;5025257;28;20380;-70
2023/08/03 05:11:18;;;;;;;0.00;0.00;;;15.40;99.90;;;;;;5025658;28;20033;-70
2023/08/03 05:13:44;;;;;;;0.00;0.00;;;15.40;99.90;;;;;;5021014;28;20034;-70
2023/08/03 05:16:09;;;;;;;0.00;0.00;;;15.40;99.90;;;;;;5016944;28;20030;-69
2023/08/03 05:18:35;;;;;;;0.00;0.00;;;15.40;99.90;;;;;;5012411;28;20034;-70
2023/08/03 05:21:01;;;;;;;0.00;0.00;;;15.40;99.90;;;;;;5017243;28;20030;-70
2023/08/03 05:23:26;;;;;;;0.00;0.00;;;15.50;99.90;;;;;;5024958;28;20074;-69
2023/08/03 05:25:56;;;;;;;0.00;0.00;;;15.50;99.90;;;;;;5025516;28;20025;-69
2023/08/03 05:28:22;;;;;;;0.00;0.00;;;15.50;99.90;;;;;;5025107;28;20030;-68
2023/08/03 05:30:48;;;;;;;0.00;0.00;;;15.50;99.90;;;;;;5020594;28;20022;-69
2023/08/03 05:33:14;;;;;;;0.00;0.00;;;15.50;99.90;;;;;;5022953;28;20041;-71
2023/08/03 05:35:40;;;;;;;0.00;0.00;;;15.50;99.90;;;;;;5023038;28;20036;-68
2023/08/03 05:38:06;;;;;;;0.00;0.00;;;15.50;99.90;;;;;;5024672;28;20057;-70
2023/08/03 05:40:31;;;;;;;0.00;0.00;;;15.50;99.90;;;;;;5020352;28;20550;-70
2023/08/03 05:42:57;;;;;;;0.00;0.00;;;15.50;99.90;;;;;;5021375;28;20496;-70
2023/08/03 05:45:42;;;;;;;0.00;0.00;;;15.60;99.90;;;;;;5015159;28;20049;-70
2023/08/03 05:48:20;;;;;;;;;;;15.60;99.90;;;;;;5019588;28;20034;-70
2023/08/03 05:50:48;;;;;;;0.00;0.00;;;15.60;99.90;;;;;;5021169;28;19916;-71
2023/08/03 05:53:14;;;;;;;0.00;0.00;;;15.60;99.90;;;;;;5023477;28;20045;-70
2023/08/03 05:55:41;;;;;;;0.00;0.00;;;15.70;99.90;;;;;;5005567;28;20050;-70
2023/08/03 05:58:10;;;;;;;0.00;0.00;;;15.70;99.90;;;;;;5017822;28;20025;-70
2023/08/03 06:00:36;;;;;;;0.00;0.00;;;15.70;99.90;;;;;;5024601;28;20029;-69
2023/08/03 06:03:03;;;;;;;0.00;0.00;;;15.70;99.90;;;;;;5020649;28;20025;-69
2023/08/03 06:05:46;;;;;;;0.00;0.00;;;15.70;99.90;;;;;;5019519;28;20052;-70
2023/08/03 06:08:21;;;;;;;0.00;0.00;;;15.70;99.90;;;;;;5015239;28;20510;-69
2023/08/03 06:10:50;;;;;;;0.00;0.00;;;15.70;99.90;;;;;;5004889;28;20096;-69
2023/08/03 06:13:18;;;;;;;0.00;0.00;;;15.70;99.90;;;;;;5004229;28;20023;-70
2023/08/03 06:15:45;;;;;;;0.00;0.00;;;15.70;99.90;;;;;;5005668;28;20503;-70
2023/08/03 06:18:18;;;;;;;0.00;0.00;;;15.60;99.90;;;;;;5018843;28;20418;-67
2023/08/03 06:20:46;;;;;;;0.00;0.00;;;15.70;99.90;;;;;;5012320;28;20022;-70
2023/08/03 06:23:19;;;;;;;0.00;0.00;;;15.70;99.90;;;;;;5005115;28;20027;-69
2023/08/03 06:25:47;;;;;;;0.00;0.00;;;15.70;99.90;;;;;;5022845;28;20046;-67
2023/08/03 06:28:15;;;;;;;0.00;0.00;;;15.70;99.90;;;;;;5024272;28;20116;-69
2023/08/03 06:30:41;;;;;;;0.00;0.00;;;15.70;99.90;;;;;;5024285;28;20080;-67
2023/08/03 06:33:10;;;;;;;0.00;0.00;;;15.70;99.90;;;;;;5022613;28;20038;-68
2023/08/03 06:35:39;;;;;;;0.00;0.00;;;15.70;99.90;;;;;;5024295;28;20036;-68
2023/08/03 06:38:06;;;;;;;0.00;0.00;;;15.70;99.90;;;;;;5013217;28;20045;-68
2023/08/03 06:40:32;;;;;;;0.00;0.00;;;15.70;99.90;;;;;;5019193;28;20030;-68
2023/08/03 06:43:00;;;;;;;0.00;0.00;;;15.70;99.90;;;;;;5023917;28;20049;-68
2023/08/03 06:45:25;;;;;;;0.00;0.00;;;15.70;99.90;;;;;;5014781;28;20030;-69
2023/08/03 06:47:52;;;;;;;0.00;0.00;;;15.70;99.90;;;;;;5002777;28;20462;-71
2023/08/03 06:50:18;;;;;;;0.00;0.00;;;15.60;99.90;;;;;;5021465;28;20033;-68
2023/08/03 06:52:43;;;;;;;0.00;0.00;;;15.70;99.90;;;;;;5019459;28;20058;-69
2023/08/03 06:55:09;;;;;;;0.00;0.00;;;15.70;99.90;;;;;;5023882;28;20049;-69
2023/08/03 06:57:34;;;;;;;0.00;0.00;;;15.60;99.90;;;;;;5023935;28;20029;-70
2023/08/03 07:00:00;;;;;;;0.00;0.00;;;15.70;99.90;;;;;;5024184;28;20029;-70
2023/08/03 07:02:26;;;;;;;0.00;0.00;;;15.60;99.90;;;;;;5016047;28;20534;-69
2023/08/03 07:04:52;;;;;;;0.00;0.00;;;15.60;99.90;;;;;;5012513;28;20050;-71
2023/08/03 07:07:18;;;;;;;0.00;0.00;;;15.60;99.90;;;;;;5006493;28;20124;-70
2023/08/03 07:09:49;;;;;;;0.00;0.00;;;15.60;99.90;;;;;;5022024;28;20030;-71
2023/08/03 07:12:15;;;;;;;0.00;0.00;;;15.60;99.90;;;;;;5019605;28;20479;-71
2023/08/03 07:14:41;;;;;;;0.00;0.00;;;15.60;99.90;;;;;;5023116;28;20077;-70
2023/08/03 07:17:07;;;;;;;0.00;0.00;;;15.70;99.90;;;;;;5020559;28;20045;-70
2023/08/03 07:19:33;;;;;;;0.00;0.00;;;15.70;99.90;;;;;;5020964;28;20469;-68
2023/08/03 07:21:59;;;;;;;0.00;0.00;;;15.70;99.90;;;;;;5020399;28;20037;-71
2023/08/03 07:24:28;;;;;;;0.00;0.00;;;15.70;99.90;;;;;;5022889;28;20032;-69
2023/08/03 07:26:54;;;;;;;0.00;0.00;;;15.80;99.90;;;;;;5023920;28;20023;-67
2023/08/03 07:29:20;;;;;;;0.00;0.00;;;15.80;99.90;;;;;;5022891;28;20044;-69
2023/08/03 07:31:45;;;;;;;0.00;0.00;;;15.90;99.90;;;;;;5027466;28;20034;-69
2023/08/03 07:34:11;;;;;;;0.00;0.00;;;16.00;99.90;;;;;;5033185;28;20029;-68
2023/08/03 07:36:36;;;;;;;0.00;0.00;;;16.00;99.90;;;;;;5029219;28;20103;-67
2023/08/03 07:39:02;;;;;;;0.00;0.00;;;16.10;99.90;;;;;;5032648;28;20022;-68
2023/08/03 07:41:28;;;;;;;0.00;0.00;;;16.20;99.90;;;;;;5038237;28;20052;-68
2023/08/03 07:43:53;;;;;;;0.00;0.00;;;16.40;99.90;;;;;;5029896;28;20510;-71
2023/08/03 07:46:19;;;;;;;0.00;0.00;;;16.50;99.90;;;;;;5007832;28;20034;-71
2023/08/03 07:48:44;;;;;;;0.03;0.03;;;16.60;99.90;;;;;;5006780;28;20037;-69
2023/08/03 07:51:12;;;;;;;0.00;0.00;;;16.70;99.90;;;;;;5026606;28;20046;-68
2023/08/03 07:53:37;;;;;;;0.00;0.00;;;16.70;99.90;;;;;;5012296;28;20080;-69
2023/08/03 07:56:03;;;;;;;0.00;0.00;;;16.80;99.90;;;;;;5016120;28;20138;-67
2023/08/03 07:58:29;;;;;;;0.00;0.00;;;16.80;99.90;;;;;;5026571;28;20049;-67
2023/08/03 08:01:05;;;;;;;0.00;0.00;;;16.80;99.90;;;;;;5026902;28;20491;-67
2023/08/03 08:03:30;;;;;;;0.00;0.00;;;16.80;99.90;;;;;;5026612;28;20026;-67
2023/08/03 08:06:08;;;;;;;0.00;0.00;;;16.80;99.90;;;;;;5026656;28;20494;-69
2023/08/03 08:08:34;;;;;;;0.00;0.00;;;16.80;99.90;;;;;;5026770;28;20037;-70
2023/08/03 08:11:00;;;;;;;0.00;0.00;;;16.80;99.90;;;;;;5025973;28;20053;-69
2023/08/03 08:13:26;;;;;;;0.05;0.05;;;16.80;99.90;;;;;;5017357;28;20069;-70
2023/08/03 08:15:56;;;;;;;0.00;0.00;;;16.90;99.90;;;;;;5028357;28;20034;-69
2023/08/03 08:18:22;;;;;;;0.00;0.00;;;16.80;99.90;;;;;;5024346;28;20041;-72
2023/08/03 08:20:55;;;;;;;0.03;0.03;;;16.80;99.90;;;;;;5021862;28;20046;-70
2023/08/03 08:23:20;;;;;;;0.08;0.08;;;16.80;99.90;;;;;;5018523;28;20033;-70
2023/08/03 08:25:46;;;;;;;0.10;0.10;;;16.80;99.90;;;;;;5025572;28;20030;-70
2023/08/03 08:28:11;;;;;;;0.00;0.00;;;16.90;99.90;;;;;;5025144;28;20034;-70
2023/08/03 08:30:37;;;;;;;3.20;1.23;;;16.90;99.90;;;;;;5026351;28;20109;-70
2023/08/03 08:33:03;;;;;;;0.00;0.00;;;17.00;99.90;;;;;;5025168;28;20529;-72
2023/08/03 08:35:28;;;;;;;0.00;0.00;;;17.00;99.90;;;;;;5027823;28;20182;-70
2023/08/03 08:37:54;;;;;;;0.00;0.00;;;17.10;99.90;;;;;;5024425;28;20033;-70
2023/08/03 08:40:20;;;;;;;0.00;0.00;;;17.00;99.90;;;;;;5024420;28;20030;-70
2023/08/03 08:42:52;;;;;;;0.00;0.00;;;17.00;99.90;;;;;;5026112;28;20049;-71
2023/08/03 08:45:18;;;;;;;0.15;0.15;;;17.00;99.90;;;;;;5020460;28;20093;-70
2023/08/03 08:47:43;;;;;;;0.00;0.00;;;17.00;99.90;;;;;;5006159;28;20030;-70
2023/08/03 08:50:09;;;;;;;0.00;0.00;;;17.00;99.90;;;;;;5010268;28;20066;-69
2023/08/03 08:52:36;;;;;;;0.00;0.00;;;17.00;99.90;;;;;;5010832;28;20058;-69
2023/08/03 08:55:16;;;;;;;0.10;0.10;;;17.00;99.90;;;;;;5014356;28;20036;-73
2023/08/03 08:57:41;;;;;;;0.00;0.00;;;17.00;99.90;;;;;;5025188;28;20034;-71
2023/08/03 09:00:08;;;;;;;0.00;0.00;;;17.00;99.90;;;;;;5011807;28;20437;-69
2023/08/03 09:02:35;;;;;;;0.20;0.20;;;17.00;99.90;;;;;;5005956;28;20030;-70
2023/08/03 09:05:18;;;;;;;0.00;0.00;;;16.90;99.90;;;;;;5021497;28;20029;-69
2023/08/03 09:07:45;;;;;;;0.00;0.00;;;16.80;99.90;;;;;;5024736;28;20057;-69
2023/08/03 09:10:11;;;;;;;0.00;0.00;;;16.70;99.90;;;;;;5023125;28;20030;-68
2023/08/03 09:12:39;;;;;;;0.00;0.00;;;16.70;99.90;;;;;;5021356;28;20058;-67
2023/08/03 09:15:05;;;;;;;0.00;0.00;;;16.70;99.90;;;;;;5023343;28;20040;-68
2023/08/03 09:17:32;;;;;;;0.00;0.00;;;16.60;99.90;;;;;;5015127;28;20045;-66
2023/08/03 09:19:57;;;;;;;0.00;0.00;;;16.70;99.90;;;;;;5022356;28;20471;-67
2023/08/03 09:22:25;;;;;;;0.00;0.00;;;16.70;99.90;;;;;;5025219;28;20040;-69
2023/08/03 09:25:01;;;;;;;0.00;0.00;;;16.70;99.90;;;;;;5020878;28;20042;-68
2023/08/03 09:27:27;;;;;;;0.00;0.00;;;16.70;99.90;;;;;;5010734;28;20041;-70
2023/08/03 09:29:59;;;;;;;0.00;0.00;;;16.70;99.90;;;;;;5018796;28;20030;-70
2023/08/03 09:32:31;;;;;;;0.00;0.00;;;16.70;99.90;;;;;;5022198;28;20068;-67
2023/08/03 09:34:57;;;;;;;0.00;0.00;;;16.60;99.90;;;;;;5022736;28;20050;-66
2023/08/03 09:37:36;;;;;;;0.00;0.00;;;16.70;99.90;;;;;;5020376;28;20056;-69
2023/08/03 09:40:04;;;;;;;0.00;0.00;;;16.70;99.90;;;;;;5021890;28;20498;-67
2023/08/03 09:42:33;;;;;;;0.00;0.00;;;16.70;99.90;;;;;;5023449;28;20022;-71
2023/08/03 09:45:03;;;;;;;0.00;0.00;;;16.70;99.90;;;;;;5013128;28;20057;-66
2023/08/03 09:47:34;;;;;;;0.00;0.00;;;16.80;99.90;;;;;;5022350;28;20040;-67
2023/08/03 09:50:00;;;;;;;0.00;0.00;;;16.80;99.90;;;;;;5019907;28;20032;-66
2023/08/03 09:52:28;;;;;;;0.00;0.00;;;16.80;99.90;;;;;;5024673;28;20058;-67
2023/08/03 09:55:08;;;;;;;0.00;0.00;;;16.90;99.90;;;;;;5021712;28;20386;-67
2023/08/03 09:57:58;;;;;;;0.00;0.00;;;16.90;99.90;;;;;;5013750;28;20037;-68
2023/08/03 10:00:25;;;;;;;0.00;0.00;;;17.00;99.90;;;;;;5017166;28;20029;-68
2023/08/03 10:02:59;;;;;;;0.00;0.00;;;17.10;99.90;;;;;;5016754;28;20023;-68
2023/08/03 10:05:28;;;;;;;0.00;0.00;;;17.30;99.90;;;;;;5012880;28;20046;-67
2023/08/03 10:08:04;;;;;;;0.43;0.38;;;17.40;99.90;;;;;;5024317;28;20034;-72
2023/08/03 10:10:35;;;;;;;0.00;0.00;;;17.50;99.90;;;;;;5024294;28;20030;-68
2023/08/03 10:13:04;;;;;;;0.32;0.10;;;17.70;99.90;;;;;;5022290;28;20049;-72
2023/08/03 10:15:30;;;;;;;0.00;0.00;;;17.70;99.90;;;;;;5023174;28;20049;-68
2023/08/03 10:17:56;;;;;;;0.17;0.17;;;17.90;99.90;;;;;;5024200;28;20030;-69
2023/08/03 10:20:23;;;;;;;0.00;0.00;;;18.00;99.90;;;;;;5024729;28;20022;-70
2023/08/03 10:23:11;;;;;;;0.00;0.00;;;18.10;99.90;;;;;;5024587;28;20029;-71
2023/08/03 10:25:57;;;;;;;0.00;0.00;;;18.20;99.90;;;;;;5023596;28;20088;-71
2023/08/03 10:28:43;;;;;;;0.00;0.00;;;18.30;99.90;;;;;;5024429;28;20021;-74
2023/08/03 10:31:15;;;;;;;0.00;0.00;;;18.30;99.90;;;;;;5024344;28;20049;-69
2023/08/03 10:33:47;;;;;;;0.08;0.08;;;18.30;99.90;;;;;;5024725;28;20029;-69
2023/08/03 10:36:27;;;;;;;0.00;0.00;;;18.20;99.90;;;;;;5024745;28;20041;-68
2023/08/03 10:38:54;;;;;;;0.00;0.00;;;18.20;99.90;;;;;;5023998;28;20105;-69
2023/08/03 10:41:25;;;;;;;0.00;0.00;;;18.00;99.90;;;;;;5024540;28;20037;-71
2023/08/03 10:44:06;;;;;;;0.00;0.00;;;17.80;99.90;;;;;;5022357;28;20053;-68
2023/08/03 10:46:43;;;;;;;0.00;0.00;;;17.70;99.90;;;;;;5024037;28;20030;-72
2023/08/03 10:49:17;;;;;;;0.00;0.00;;;17.60;99.90;;;;;;5022873;28;20026;-71
2023/08/03 10:51:44;;;;;;;0.00;0.00;;;17.60;99.90;;;;;;5024230;28;20093;-68
2023/08/03 10:54:09;;;;;;;0.00;0.00;;;17.60;99.90;;;;;;5023923;28;20025;-66
2023/08/03 10:56:35;;;;;;;0.00;0.00;;;17.50;99.90;;;;;;5024301;28;20464;-66
2023/08/03 10:59:03;;;;;;;0.00;0.00;;;17.60;99.90;;;;;;5024286;28;20070;-66
2023/08/03 11:01:30;;;;;;;0.10;0.05;;;17.60;99.90;;;;;;5028042;28;20050;-66
2023/08/03 11:03:56;;;;;;;0.00;0.00;;;17.80;99.90;;;;;;5027764;28;20086;-68
2023/08/03 11:06:24;;;;;;;0.00;0.00;;;18.00;99.90;;;;;;5027708;28;20034;-70
2023/08/03 11:08:50;;;;;;;0.00;0.00;;;18.10;99.90;;;;;;5027341;28;20025;-69
2023/08/03 11:11:22;;;;;;;0.00;0.00;;;18.30;99.90;;;;;;5027246;28;20069;-70
2023/08/03 11:13:49;;;;;;;0.00;0.00;;;18.40;99.90;;;;;;5020971;28;20093;-69
2023/08/03 11:16:21;;;;;;;0.00;0.00;;;18.50;99.90;;;;;;5008150;28;20399;-72
2023/08/03 11:18:48;;;;;;;0.00;0.00;;;18.60;99.90;;;;;;5007088;28;20062;-73
2023/08/03 11:21:14;;;;;;;0.00;0.00;;;18.70;99.90;;;;;;5007995;28;20022;-68
2023/08/03 11:23:39;;;;;;;0.00;0.00;;;18.80;99.90;;;;;;5008127;28;20089;-68
2023/08/03 11:26:08;;;;;;;0.00;0.00;;;19.00;99.90;;;;;;5007923;28;20026;-70
2023/08/03 11:28:43;;;;;;;0.00;0.00;;;19.30;99.90;;;;;;5009389;28;20045;-69
2023/08/03 11:31:15;;;;;;;0.20;0.20;;;19.50;99.90;;;;;;5027435;28;20030;-69
2023/08/03 11:33:47;;;;;;;0.00;0.00;;;19.60;99.90;;;;;;5027583;28;20034;-73
2023/08/03 11:36:15;;;;;;;0.00;0.00;;;19.80;99.90;;;;;;5027729;28;20030;-72
2023/08/03 11:38:41;;;;;;;0.00;0.00;;;19.90;99.90;;;;;;5027567;28;20034;-70
2023/08/03 11:41:07;;;;;;;0.00;0.00;;;19.90;99.90;;;;;;5027607;28;20041;-70
2023/08/03 11:43:32;;;;;;;0.00;0.00;;;19.80;99.90;;;;;;5026838;28;20471;-72
2023/08/03 11:45:58;;;;;;;0.00;0.00;;;19.80;99.90;;;;;;5027556;28;20033;-71
2023/08/03 11:48:25;;;;;;;0.00;0.00;;;19.90;99.90;;;;;;5025556;28;20030;-74
2023/08/03 11:50:54;;;;;;;0.05;0.05;;;20.10;99.90;;;;;;5025133;28;20037;-75
2023/08/03 11:53:27;;;;;;;0.00;0.00;;;20.20;99.90;;;;;;5027237;28;20540;-70
2023/08/03 11:55:53;;;;;;;0.00;0.00;;;20.30;99.90;;;;;;5027119;28;20030;-74
2023/08/03 11:58:23;;;;;;;0.00;0.00;;;20.40;99.90;;;;;;5026482;28;20026;-72
2023/08/03 12:00:49;;;;;;;0.00;0.00;;;20.50;99.90;;;;;;5026108;28;20030;-72
2023/08/03 12:03:29;;;;;;;0.00;0.00;;;20.50;99.90;;;;;;5026803;28;20537;-73
2023/08/03 12:05:59;;;;;;;0.00;0.00;;;20.40;99.90;;;;;;5027080;28;20034;-71
2023/08/03 12:08:25;;;;;;;0.00;0.00;;;20.20;99.90;;;;;;5027073;28;20030;-72
2023/08/03 12:11:02;;;;;;;0.00;0.00;;;19.80;99.90;;;;;;5026042;28;20077;-70
2023/08/03 12:13:28;;;;;;;0.00;0.00;;;19.50;99.90;;;;;;5025592;28;20120;-69
2023/08/03 12:15:53;;;;;;;0.00;0.00;;;19.30;99.90;;;;;;5026722;28;20029;-70
2023/08/03 12:18:21;;;;;;;0.00;0.00;;;19.20;99.90;;;;;;5026569;28;20028;-70
2023/08/03 12:20:49;;;;;;;0.00;0.00;;;19.30;99.90;;;;;;5026974;28;20022;-70
2023/08/03 12:23:16;;;;;;;0.00;0.00;;;19.50;99.90;;;;;;5026111;28;20380;-70
2023/08/03 12:25:42;;;;;;;0.00;0.00;;;19.70;99.90;;;;;;5026621;28;20022;-68
2023/08/03 12:28:07;;;;;;;0.00;0.00;;;20.00;99.90;;;;;;5025072;28;20026;-68
2023/08/03 12:30:33;;;;;;;0.00;0.00;;;20.20;99.90;;;;;;5026079;28;20034;-70
2023/08/03 12:32:58;;;;;;;0.00;0.00;;;20.40;99.90;;;;;;5026380;28;20059;-70
2023/08/03 12:35:24;;;;;;;0.00;0.00;;;20.50;99.90;;;;;;5026382;28;20040;-70
2023/08/03 12:37:50;;;;;;;0.00;0.00;;;20.50;99.90;;;;;;5026423;28;20026;-70
2023/08/03 12:40:16;;;;;;;0.00;0.00;;;20.40;99.90;;;;;;5025396;28;20045;-70
2023/08/03 12:42:42;;;;;;;0.00;0.00;;;20.30;99.90;;;;;;5026315;28;20029;-69
2023/08/03 12:45:08;;;;;;;0.00;0.00;;;20.10;99.90;;;;;;5025556;28;20094;-69